Pagina principale
METAR-TAF:

METAR-TAF

Aeroporti :

Nancy, Francia

latitudine: 48-41N, longitudine: 006-13E, altezza: 225 m

Osservazione

Il bollettino è stato emesso 15 minuti fa, alle 06:30 UTC
Vento 7 kt da ovest, variando fra ovest/sud-ovest e nord/nord-ovest
Temperature 3°C
Umidità 93%
Pressione 1007 hPa
Visibilità 10 km o più
pioggia debole

METAR: LFSN 180630Z AUTO 28007KT 250V330 9999 -RA OVC010/// ///TCU 03/02 Q1007

Ora: 07:45 (06:45 UTC)


TAF: mancante

Osservazioni e previsioni meteorologiche di più di 4000 aeroporti (messaggi METAR e TAF).

Le stazioni disponibili sono rappresentate dai dischi gialli e rossi sulla carta.

Puntare il mouse per vedere il nome della stazione.

Clicca sopra per visualizzare le osservazioni e previsioni meteorologiche.

Per cambiare la mappa : fare clic sui pulsanti verdi con una croce nera per ingrandire, il pulsante verde con un trattino per diminuire, o sulla freccia verde per le mappe adiacenti.


METAR-TAF: